Nearby METAR Reports

 

KMTN - Baltimore/Martin, Maryland, USA
Distance from station: SSE 8mi, 13km
Updated: Tue, 07-Jul-2015 10:45am EDT
Partly cloudy
Partly cloudy
 Wind from ESE
Wind: ESE 7 mph , 11 km/h
Temperature: 82°F , 28°C
Heat Index: 90°F , 32°C
Dew Point: 77°F , 25°C
Humidity: 84%
Barometer: 30.06 inHg , 1017.9 hPa
Clouds: Partly cloudy
Visibility: 10 miles , 16 km
Cloud details: Partly cloudy 5000 ft
2015/07/07 14:45 KMTN 071445Z 12006KT 10SM SCT050 28/25 A3006
KDMH - Baltimore/Dwntwn, Maryland, USA
Distance from station: SW 12mi, 19km
Updated: Tue, 07-Jul-2015 10:54am EDT

 
Temperature: 82°F , 28°C
Heat Index: 86°F , 30°C
Dew Point: 70°F , 21°C
Humidity: 66%
Barometer: 30.07 inHg , 1018.3 hPa
2015/07/07 14:54 KDMH 071454Z AUTO 28/21 A3007 RMK AO1 SLP181 T02830211 50000
 
KBWI - Balto/Wash Intl, Maryland, USA
Distance from station: SSW 20mi, 33km
Updated: Tue, 07-Jul-2015 10:54am EDT
Few Clouds
Few Clouds
 Wind from W
Wind: W 7 mph , 11 km/h
Temperature: 82°F , 28°C
Heat Index: 86°F , 30°C
Dew Point: 72°F , 22°C
Humidity: 70%
Barometer: 30.05 inHg , 1017.6 hPa
Clouds: Few Clouds
Visibility: 10 miles , 16 km
Cloud details: Few Clouds 2500 ft
2015/07/07 14:54 KBWI 071454Z 28006KT 10SM FEW025 28/22 A3005 RMK AO2 SLP173 T02830217 58002
KDMW - Carroll Cnty, Maryland, USA
Distance from station: WNW 30mi, 48km
Updated: Tue, 07-Jul-2015 11:15am EDT
Clear
Clear
 Wind from calm
Wind: Calm
Temperature: 81°F , 27°C
Heat Index: 86°F , 30°C
Dew Point: 73°F , 23°C
Humidity: 79%
Barometer: 30.07 inHg , 1018.3 hPa
Clouds: Clear
Visibility: 10 miles , 16 km
2015/07/07 15:15 KDMW 071515Z AUTO 00000KT 10SM CLR 27/23 A3007 RMK AO2
 
KNAK - Annapolis/Naval, Maryland, USA
Distance from station: S 30mi, 48km
Updated: Tue, 07-Jul-2015 10:54am EDT
Clear
Clear
 Wind from SE
Wind: SE 8 mph , 13 km/h
Temperature: 79°F , 26°C
Dew Point: 72°F , 22°C
Humidity: 79%
Barometer: 30.05 inHg , 1017.6 hPa
Clouds: Clear
Visibility: 9 miles , 14 km
2015/07/07 14:54 KNAK 071454Z AUTO 13007KT 9SM CLR 26/22 A3005 RMK AO2 SLP176 T02560222 58003
KW29 - Stevensville, Maryland, USA
Distance from station: SSE 31mi, 50km
Updated: Tue, 07-Jul-2015 11:14am EDT

 Wind from W
Wind: W 7 mph , 11 km/h
Temperature: 81°F , 27°C
Heat Index: 85°F , 29°C
Dew Point: 70°F , 21°C
Humidity: 70%
Barometer: 30.05 inHg , 1017.6 hPa
Visibility: 10 miles , 16 km
2015/07/07 15:14 KW29 071514Z AUTO 26006KT 10SM 27/21 A3005 RMK AO1
 
KCGS - College Park, Maryland, USA
Distance from station: SW 38mi, 61km
Updated: Tue, 07-Jul-2015 11:10am EDT
Clear
Clear
 Wind from calm
Wind: Calm
Temperature: 84°F , 29°C
Heat Index: 88°F , 31°C
Dew Point: 70°F , 21°C
Humidity: 62%
Barometer: 30.05 inHg , 1017.6 hPa
Clouds: Clear
Visibility: 10 miles , 16 km
2015/07/07 15:10 KCGS 071510Z AUTO 00000KT 10SM CLR 29/21 A3005 RMK AO1
KGAI - Gaithersburg, Maryland, USA
Distance from station: WSW 40mi, 65km
Updated: Tue, 07-Jul-2015 11:15am EDT
Clear
Clear
 Wind from W
Wind: W 6 mph , 9 km/h
Temperature: 81°F , 27°C
Heat Index: 85°F , 29°C
Dew Point: 72°F , 22°C
Humidity: 74%
Barometer: 30.10 inHg , 1019.3 hPa
Clouds: Clear
Visibility: 10 miles , 16 km
2015/07/07 15:15 KGAI 071515Z AUTO 27005KT 10SM CLR 27/22 A3010 RMK AO1
 
KTHV - York, Pennsylvania, USA
Distance from station: NNW 40mi, 65km
Updated: Tue, 07-Jul-2015 10:53am EDT
Mostly cloudy
Mostly cloudy
 Wind from W
Wind: W 5 mph , 7 km/h
Temperature: 81°F , 27°C
Heat Index: 85°F , 29°C
Dew Point: 70°F , 21°C
Humidity: 70%
Barometer: 30.05 inHg , 1017.6 hPa
Clouds: Mostly cloudy
Visibility: 10 miles , 16 km
Cloud details: Partly cloudy 2400 ft
Mostly cloudy 10000 ft
2015/07/07 14:53 KTHV 071453Z AUTO 27004KT 10SM SCT024 BKN100 27/21 A3005 RMK AO2 SLP175 T02670211 55003
KFDK - Frederick, Maryland, USA
Distance from station: W 47mi, 75km
Updated: Tue, 07-Jul-2015 10:47am EDT
Partly cloudy
Partly cloudy
 Wind from SSW
Wind: SSW 6 mph , 9 km/h
Temperature: 82°F , 28°C
Heat Index: 89°F , 32°C
Dew Point: 75°F , 24°C
Humidity: 79%
Barometer: 30.09 inHg , 1019 hPa
Clouds: Partly cloudy
Visibility: 10 miles , 16 km
Cloud details: Partly cloudy 12000 ft
2015/07/07 14:47 KFDK 071447Z 20005KT 10SM SCT120 28/24 A3009
 
KESN - Easton/Newnam, Maryland, USA
Distance from station: SSE 48mi, 78km
Updated: Tue, 07-Jul-2015 10:48am EDT
Partly cloudy
Partly cloudy
 Wind from W
Wind: W 7 mph , 11 km/h
Temperature: 84°F , 29°C
Heat Index: 92°F , 33°C
Dew Point: 75°F , 24°C
Humidity: 74%
Barometer: 30.09 inHg , 1019 hPa
Clouds: Partly cloudy
Visibility: 10 miles , 16 km
Cloud details: Partly cloudy 1300 ft
Partly cloudy 3000 ft
2015/07/07 14:48 KESN 071448Z 27006KT 10SM SCT013 SCT030 29/24 A3009
KDCA - Washington/Natl, Washington D.c., USA
Distance from station: SW 49mi, 79km
Updated: Tue, 07-Jul-2015 10:52am EDT
Few Clouds
Few Clouds
 Wind from S
Wind: S 8 mph , 13 km/h
Temperature: 82°F , 28°C
Heat Index: 87°F , 31°C
Dew Point: 73°F , 23°C
Humidity: 74%
Barometer: 30.06 inHg , 1017.9 hPa
Clouds: Few Clouds
Visibility: 10 miles , 16 km
Cloud details: Few Clouds 2500 ft
2015/07/07 14:52 KDCA 071452Z 17007KT 10SM FEW025 28/23 A3006 RMK AO2 SLP180 T02830233 55003 $
 
KLNS - Lancaster, Pennsylvania, USA
Distance from station: N 49mi, 79km
Updated: Tue, 07-Jul-2015 11:08am EDT
Mostly cloudy
Mostly cloudy
 Wind from WSW
Wind: WSW 9 mph , 15 km/h
Temperature: 81°F , 27°C
Heat Index: 85°F , 29°C
Dew Point: 72°F , 22°C
Humidity: 74%
Barometer: 30.04 inHg , 1017.3 hPa
Clouds: Mostly cloudy
Visibility: 10 miles , 16 km
Cloud details: Few Clouds 2000 ft
Mostly cloudy 2900 ft
2015/07/07 15:08 KLNS 071508Z 24008KT 10SM FEW020 BKN029 27/22 A3004 RMK AO2 T02670217
KILG - Wilmington, Delaware, USA
Distance from station: ENE 50mi, 81km
Updated: Tue, 07-Jul-2015 10:51am EDT
Partly cloudy
Partly cloudy
 Wind from WNW
Wind: WNW 3 mph , 6 km/h
Temperature: 82°F , 28°C
Heat Index: 86°F , 30°C
Dew Point: 72°F , 22°C
Humidity: 70%
Barometer: 30.05 inHg , 1017.6 hPa
Clouds: Partly cloudy
Visibility: 10 miles , 16 km
Cloud details: Partly cloudy 1800 ft
2015/07/07 14:51 KILG 071451Z 29003KT 10SM SCT018 28/22 A3005 RMK AO2 SLP173 T02780222 58002